sensor_id;sensor_type;location;lat;lon;timestamp;temperature;humidity
65046;DHT22;54657;52.022;5.534;2023-02-01T00:46:11;7.00;79.50
65046;DHT22;54657;52.022;5.534;2023-02-01T00:48:37;7.00;79.20
65046;DHT22;54657;52.022;5.534;2023-02-01T00:51:06;7.00;79.50
65046;DHT22;54657;52.022;5.534;2023-02-01T00:53:32;7.10;79.50
65046;DHT22;54657;52.022;5.534;2023-02-01T00:55:57;7.10;79.50
65046;DHT22;54657;52.022;5.534;2023-02-01T00:58:23;7.10;79.40
65046;DHT22;54657;52.022;5.534;2023-02-01T01:03:26;7.10;79.30
65046;DHT22;54657;52.022;5.534;2023-02-01T01:05:56;7.10;79.60
65046;DHT22;54657;52.022;5.534;2023-02-01T01:08:22;7.10;79.50
65046;DHT22;54657;52.022;5.534;2023-02-01T01:10:48;7.10;79.60
65046;DHT22;54657;52.022;5.534;2023-02-01T01:13:15;7.10;79.60
65046;DHT22;54657;52.022;5.534;2023-02-01T01:15:40;7.10;79.60
65046;DHT22;54657;52.022;5.534;2023-02-01T01:18:07;7.10;79.60
65046;DHT22;54657;52.022;5.534;2023-02-01T01:20:37;7.10;79.60
65046;DHT22;54657;52.022;5.534;2023-02-01T01:23:04;7.10;79.60
65046;DHT22;54657;52.022;5.534;2023-02-01T01:25:30;7.20;79.70
65046;DHT22;54657;52.022;5.534;2023-02-01T01:27:55;7.10;79.80
65046;DHT22;54657;52.022;5.534;2023-02-01T01:30:21;7.20;79.80
65046;DHT22;54657;52.022;5.534;2023-02-01T01:32:47;7.20;79.80
65046;DHT22;54657;52.022;5.534;2023-02-01T01:35:12;7.20;79.70
65046;DHT22;54657;52.022;5.534;2023-02-01T01:37:38;7.20;79.70
65046;DHT22;54657;52.022;5.534;2023-02-01T01:40:05;7.20;79.80
65046;DHT22;54657;52.022;5.534;2023-02-01T01:42:30;7.10;79.90
65046;DHT22;54657;52.022;5.534;2023-02-01T01:45:32;7.20;80.00
65046;DHT22;54657;52.022;5.534;2023-02-01T01:48:02;7.20;79.60
65046;DHT22;54657;52.022;5.534;2023-02-01T01:50:33;7.10;80.00
65046;DHT22;54657;52.022;5.534;2023-02-01T01:53:04;7.10;80.00
65046;DHT22;54657;52.022;5.534;2023-02-01T01:55:35;7.10;80.10
65046;DHT22;54657;52.022;5.534;2023-02-01T01:58:09;7.10;80.20
65046;DHT22;54657;52.022;5.534;2023-02-01T02:00:35;7.10;80.10
65046;DHT22;54657;52.022;5.534;2023-02-01T02:03:43;7.00;80.20
65046;DHT22;54657;52.022;5.534;2023-02-01T02:08:58;7.00;80.00
65046;DHT22;54657;52.022;5.534;2023-02-01T02:11:23;7.00;80.10
65046;DHT22;54657;52.022;5.534;2023-02-01T02:13:52;7.00;80.10
65046;DHT22;54657;52.022;5.534;2023-02-01T02:16:48;7.00;80.20
65046;DHT22;54657;52.022;5.534;2023-02-01T02:31:19;7.10;79.40
65046;DHT22;54657;52.022;5.534;2023-02-01T02:34:26;7.10;79.30
65046;DHT22;54657;52.022;5.534;2023-02-01T02:45:51;7.20;79.40
65046;DHT22;54657;52.022;5.534;2023-02-01T02:48:46;7.20;80.20
65046;DHT22;54657;52.022;5.534;2023-02-01T02:51:35;7.20;79.50
65046;DHT22;54657;52.022;5.534;2023-02-01T02:54:25;7.30;79.70
65046;DHT22;54657;52.022;5.534;2023-02-01T03:00:12;7.40;79.60
65046;DHT22;54657;52.022;5.534;2023-02-01T03:02:56;7.40;79.50
65046;DHT22;54657;52.022;5.534;2023-02-01T03:05:46;7.50;79.50
65046;DHT22;54657;52.022;5.534;2023-02-01T03:08:24;7.50;79.50
65046;DHT22;54657;52.022;5.534;2023-02-01T03:11:05;7.60;79.50
65046;DHT22;54657;52.022;5.534;2023-02-01T03:13:45;7.60;79.40
65046;DHT22;54657;52.022;5.534;2023-02-01T03:16:23;7.60;79.40
65046;DHT22;54657;52.022;5.534;2023-02-01T03:21:44;7.60;79.20
65046;DHT22;54657;52.022;5.534;2023-02-01T03:24:16;7.60;79.50
65046;DHT22;54657;52.022;5.534;2023-02-01T03:26:50;7.70;79.50
65046;DHT22;54657;52.022;5.534;2023-02-01T03:29:27;7.70;79.50
65046;DHT22;54657;52.022;5.534;2023-02-01T03:31:54;7.70;79.30
65046;DHT22;54657;52.022;5.534;2023-02-01T03:34:20;7.70;79.40
65046;DHT22;54657;52.022;5.534;2023-02-01T03:36:55;7.70;79.30
65046;DHT22;54657;52.022;5.534;2023-02-01T03:39:25;7.80;79.00
65046;DHT22;54657;52.022;5.534;2023-02-01T03:41:55;7.70;79.20
65046;DHT22;54657;52.022;5.534;2023-02-01T03:44:34;7.80;79.30
65046;DHT22;54657;52.022;5.534;2023-02-01T03:47:09;7.80;79.10
65046;DHT22;54657;52.022;5.534;2023-02-01T03:49:57;7.70;79.20
65046;DHT22;54657;52.022;5.534;2023-02-01T03:52:29;7.80;78.60
65046;DHT22;54657;52.022;5.534;2023-02-01T03:54:57;7.70;79.20
65046;DHT22;54657;52.022;5.534;2023-02-01T03:57:32;7.70;79.10
65046;DHT22;54657;52.022;5.534;2023-02-01T04:00:16;7.70;78.90
65046;DHT22;54657;52.022;5.534;2023-02-01T04:02:41;7.70;78.70
65046;DHT22;54657;52.022;5.534;2023-02-01T04:05:07;7.70;79.10
65046;DHT22;54657;52.022;5.534;2023-02-01T04:07:33;7.70;79.20
65046;DHT22;54657;52.022;5.534;2023-02-01T04:09:59;7.70;78.90
65046;DHT22;54657;52.022;5.534;2023-02-01T04:12:24;7.70;78.80
65046;DHT22;54657;52.022;5.534;2023-02-01T04:14:50;7.70;78.70
65046;DHT22;54657;52.022;5.534;2023-02-01T04:17:15;7.70;78.80
65046;DHT22;54657;52.022;5.534;2023-02-01T04:19:41;7.70;78.70
65046;DHT22;54657;52.022;5.534;2023-02-01T04:22:06;7.80;78.80
65046;DHT22;54657;52.022;5.534;2023-02-01T04:24:32;7.70;79.30
65046;DHT22;54657;52.022;5.534;2023-02-01T04:26:57;7.80;78.60
65046;DHT22;54657;52.022;5.534;2023-02-01T04:29:23;7.80;78.70
65046;DHT22;54657;52.022;5.534;2023-02-01T04:31:48;7.80;78.60
65046;DHT22;54657;52.022;5.534;2023-02-01T04:34:14;7.80;78.60
65046;DHT22;54657;52.022;5.534;2023-02-01T04:36:40;7.80;78.60
65046;DHT22;54657;52.022;5.534;2023-02-01T04:39:05;7.90;78.40
65046;DHT22;54657;52.022;5.534;2023-02-01T04:41:31;7.90;78.40
65046;DHT22;54657;52.022;5.534;2023-02-01T04:43:57;7.90;78.40
65046;DHT22;54657;52.022;5.534;2023-02-01T04:46:22;7.90;78.50
65046;DHT22;54657;52.022;5.534;2023-02-01T04:48:48;7.90;78.60
65046;DHT22;54657;52.022;5.534;2023-02-01T04:51:14;7.90;78.50
65046;DHT22;54657;52.022;5.534;2023-02-01T04:53:40;8.00;78.50
65046;DHT22;54657;52.022;5.534;2023-02-01T04:56:06;8.00;78.30
65046;DHT22;54657;52.022;5.534;2023-02-01T04:58:32;8.00;78.20
65046;DHT22;54657;52.022;5.534;2023-02-01T05:00:57;8.00;78.30
65046;DHT22;54657;52.022;5.534;2023-02-01T05:03:23;8.00;78.20
65046;DHT22;54657;52.022;5.534;2023-02-01T05:05:49;8.00;78.30
65046;DHT22;54657;52.022;5.534;2023-02-01T05:08:15;8.00;78.20
65046;DHT22;54657;52.022;5.534;2023-02-01T05:10:41;8.00;78.00
65046;DHT22;54657;52.022;5.534;2023-02-01T05:13:08;8.00;78.30
65046;DHT22;54657;52.022;5.534;2023-02-01T05:15:53;8.00;78.00
65046;DHT22;54657;52.022;5.534;2023-02-01T05:18:18;8.00;78.30
65046;DHT22;54657;52.022;5.534;2023-02-01T05:20:44;8.00;78.30
65046;DHT22;54657;52.022;5.534;2023-02-01T05:23:09;8.10;78.40
65046;DHT22;54657;52.022;5.534;2023-02-01T05:25:35;8.00;78.20
65046;DHT22;54657;52.022;5.534;2023-02-01T05:28:00;8.00;78.20
65046;DHT22;54657;52.022;5.534;2023-02-01T05:30:26;8.10;78.30
65046;DHT22;54657;52.022;5.534;2023-02-01T05:32:52;8.10;78.30
65046;DHT22;54657;52.022;5.534;2023-02-01T05:35:18;8.10;78.20
65046;DHT22;54657;52.022;5.534;2023-02-01T05:37:44;8.00;78.20
65046;DHT22;54657;52.022;5.534;2023-02-01T05:40:10;8.10;78.20
65046;DHT22;54657;52.022;5.534;2023-02-01T05:42:36;8.10;78.20
65046;DHT22;54657;52.022;5.534;2023-02-01T05:45:01;8.10;78.30
65046;DHT22;54657;52.022;5.534;2023-02-01T05:47:27;8.10;78.30
65046;DHT22;54657;52.022;5.534;2023-02-01T05:49:53;8.10;78.20
65046;DHT22;54657;52.022;5.534;2023-02-01T05:52:19;8.10;78.10
65046;DHT22;54657;52.022;5.534;2023-02-01T05:54:45;8.10;78.30
65046;DHT22;54657;52.022;5.534;2023-02-01T05:57:12;8.10;79.10
65046;DHT22;54657;52.022;5.534;2023-02-01T05:59:38;8.00;78.40
65046;DHT22;54657;52.022;5.534;2023-02-01T06:02:07;8.10;78.40
65046;DHT22;54657;52.022;5.534;2023-02-01T06:04:36;8.10;78.30
65046;DHT22;54657;52.022;5.534;2023-02-01T06:07:02;8.10;78.30
65046;DHT22;54657;52.022;5.534;2023-02-01T06:09:28;8.10;78.40
65046;DHT22;54657;52.022;5.534;2023-02-01T06:11:54;8.10;78.40
65046;DHT22;54657;52.022;5.534;2023-02-01T06:14:19;8.10;78.40
65046;DHT22;54657;52.022;5.534;2023-02-01T06:16:45;8.20;78.20
65046;DHT22;54657;52.022;5.534;2023-02-01T06:19:13;8.10;78.40
65046;DHT22;54657;52.022;5.534;2023-02-01T06:21:39;8.10;78.30
65046;DHT22;54657;52.022;5.534;2023-02-01T06:24:04;8.10;78.30
65046;DHT22;54657;52.022;5.534;2023-02-01T06:26:31;8.10;78.30
65046;DHT22;54657;52.022;5.534;2023-02-01T06:28:57;8.10;78.30
65046;DHT22;54657;52.022;5.534;2023-02-01T06:31:22;8.10;78.30
65046;DHT22;54657;52.022;5.534;2023-02-01T06:33:48;8.10;78.50
65046;DHT22;54657;52.022;5.534;2023-02-01T06:36:14;8.10;78.50
65046;DHT22;54657;52.022;5.534;2023-02-01T06:38:41;8.10;78.40
65046;DHT22;54657;52.022;5.534;2023-02-01T06:41:07;8.00;78.40
65046;DHT22;54657;52.022;5.534;2023-02-01T06:43:32;8.10;78.80
65046;DHT22;54657;52.022;5.534;2023-02-01T06:46:02;8.00;78.70
65046;DHT22;54657;52.022;5.534;2023-02-01T06:48:29;8.00;78.60
65046;DHT22;54657;52.022;5.534;2023-02-01T06:50:54;8.00;78.70
65046;DHT22;54657;52.022;5.534;2023-02-01T06:53:20;8.00;78.70
65046;DHT22;54657;52.022;5.534;2023-02-01T06:55:57;8.00;78.80
65046;DHT22;54657;52.022;5.534;2023-02-01T06:58:23;8.00;78.50
65046;DHT22;54657;52.022;5.534;2023-02-01T07:00:49;7.90;78.70
65046;DHT22;54657;52.022;5.534;2023-02-01T07:03:24;7.90;78.80
65046;DHT22;54657;52.022;5.534;2023-02-01T07:05:55;7.90;78.60
65046;DHT22;54657;52.022;5.534;2023-02-01T07:08:26;7.90;79.10
65046;DHT22;54657;52.022;5.534;2023-02-01T07:10:52;7.90;79.10
65046;DHT22;54657;52.022;5.534;2023-02-01T07:13:17;7.80;79.10
65046;DHT22;54657;52.022;5.534;2023-02-01T07:15:43;7.90;79.20
65046;DHT22;54657;52.022;5.534;2023-02-01T07:18:08;7.80;79.10
65046;DHT22;54657;52.022;5.534;2023-02-01T07:20:34;7.90;79.10
65046;DHT22;54657;52.022;5.534;2023-02-01T07:23:01;7.80;79.00
65046;DHT22;54657;52.022;5.534;2023-02-01T07:25:26;7.90;79.10
65046;DHT22;54657;52.022;5.534;2023-02-01T07:27:52;7.90;79.20
65046;DHT22;54657;52.022;5.534;2023-02-01T07:30:17;7.80;79.00
65046;DHT22;54657;52.022;5.534;2023-02-01T07:32:43;7.90;79.10
65046;DHT22;54657;52.022;5.534;2023-02-01T07:35:09;7.90;79.20
65046;DHT22;54657;52.022;5.534;2023-02-01T07:37:34;7.90;79.10
65046;DHT22;54657;52.022;5.534;2023-02-01T07:40:00;7.90;79.00
65046;DHT22;54657;52.022;5.534;2023-02-01T07:42:25;7.90;79.00
65046;DHT22;54657;52.022;5.534;2023-02-01T07:44:51;7.90;79.10
65046;DHT22;54657;52.022;5.534;2023-02-01T07:47:16;7.90;79.00
65046;DHT22;54657;52.022;5.534;2023-02-01T07:49:42;7.90;78.90
65046;DHT22;54657;52.022;5.534;2023-02-01T07:52:07;7.90;78.90
65046;DHT22;54657;52.022;5.534;2023-02-01T07:54:33;7.90;78.90
65046;DHT22;54657;52.022;5.534;2023-02-01T07:56:59;7.90;78.80
65046;DHT22;54657;52.022;5.534;2023-02-01T07:59:24;7.90;78.80
65046;DHT22;54657;52.022;5.534;2023-02-01T08:01:50;7.90;78.70
65046;DHT22;54657;52.022;5.534;2023-02-01T08:04:15;7.90;78.70
65046;DHT22;54657;52.022;5.534;2023-02-01T08:06:41;8.00;78.70
65046;DHT22;54657;52.022;5.534;2023-02-01T08:09:07;8.00;78.70
65046;DHT22;54657;52.022;5.534;2023-02-01T08:11:34;8.00;78.70
65046;DHT22;54657;52.022;5.534;2023-02-01T08:14:01;8.00;78.60
65046;DHT22;54657;52.022;5.534;2023-02-01T08:16:27;8.00;78.60
65046;DHT22;54657;52.022;5.534;2023-02-01T08:18:53;8.00;78.70
65046;DHT22;54657;52.022;5.534;2023-02-01T08:21:22;8.00;78.40
65046;DHT22;54657;52.022;5.534;2023-02-01T08:23:48;8.00;78.40
65046;DHT22;54657;52.022;5.534;2023-02-01T08:26:24;8.00;78.40
65046;DHT22;54657;52.022;5.534;2023-02-01T08:28:56;8.10;78.50
65046;DHT22;54657;52.022;5.534;2023-02-01T08:31:23;8.00;78.20
65046;DHT22;54657;52.022;5.534;2023-02-01T08:33:52;8.00;78.40
65046;DHT22;54657;52.022;5.534;2023-02-01T08:36:19;8.00;78.40
65046;DHT22;54657;52.022;5.534;2023-02-01T08:38:44;8.10;78.40
65046;DHT22;54657;52.022;5.534;2023-02-01T08:41:16;8.00;78.40
65046;DHT22;54657;52.022;5.534;2023-02-01T08:43:45;8.10;78.20
65046;DHT22;54657;52.022;5.534;2023-02-01T08:46:11;8.10;78.50
65046;DHT22;54657;52.022;5.534;2023-02-01T08:48:37;8.20;78.50
65046;DHT22;54657;52.022;5.534;2023-02-01T08:51:10;8.20;78.40
65046;DHT22;54657;52.022;5.534;2023-02-01T08:53:36;8.20;78.30
65046;DHT22;54657;52.022;5.534;2023-02-01T08:56:03;8.20;78.30
65046;DHT22;54657;52.022;5.534;2023-02-01T08:58:28;8.30;78.40
65046;DHT22;54657;52.022;5.534;2023-02-01T09:00:54;8.30;78.30
65046;DHT22;54657;52.022;5.534;2023-02-01T09:03:20;8.30;78.30
65046;DHT22;54657;52.022;5.534;2023-02-01T09:05:46;8.30;78.50
65046;DHT22;54657;52.022;5.534;2023-02-01T09:08:12;8.30;78.50
65046;DHT22;54657;52.022;5.534;2023-02-01T09:10:41;8.40;78.50
65046;DHT22;54657;52.022;5.534;2023-02-01T09:13:07;8.30;78.40
65046;DHT22;54657;52.022;5.534;2023-02-01T09:15:33;8.30;78.60
65046;DHT22;54657;52.022;5.534;2023-02-01T09:17:59;8.40;78.50
65046;DHT22;54657;52.022;5.534;2023-02-01T09:20:25;8.40;78.50
65046;DHT22;54657;52.022;5.534;2023-02-01T09:22:52;8.40;78.40
65046;DHT22;54657;52.022;5.534;2023-02-01T09:25:17;8.50;78.20
65046;DHT22;54657;52.022;5.534;2023-02-01T09:27:43;8.50;78.30
65046;DHT22;54657;52.022;5.534;2023-02-01T09:30:09;8.60;77.90
65046;DHT22;54657;52.022;5.534;2023-02-01T09:32:35;8.70;78.00
65046;DHT22;54657;52.022;5.534;2023-02-01T09:35:01;8.80;78.00
65046;DHT22;54657;52.022;5.534;2023-02-01T09:37:27;8.90;77.80
65046;DHT22;54657;52.022;5.534;2023-02-01T09:39:52;8.90;77.50
65046;DHT22;54657;52.022;5.534;2023-02-01T09:45:28;9.00;77.30
65046;DHT22;54657;52.022;5.534;2023-02-01T09:48:11;9.00;76.70
65046;DHT22;54657;52.022;5.534;2023-02-01T09:50:39;9.00;76.80
65046;DHT22;54657;52.022;5.534;2023-02-01T09:53:22;8.90;77.10
65046;DHT22;54657;52.022;5.534;2023-02-01T09:55:51;8.90;76.70
65046;DHT22;54657;52.022;5.534;2023-02-01T09:58:36;8.90;77.40
65046;DHT22;54657;52.022;5.534;2023-02-01T10:01:05;9.00;75.80
65046;DHT22;54657;52.022;5.534;2023-02-01T10:03:36;8.90;77.20
65046;DHT22;54657;52.022;5.534;2023-02-01T10:14:51;8.90;76.90
65046;DHT22;54657;52.022;5.534;2023-02-01T10:23:28;8.90;77.20
65046;DHT22;54657;52.022;5.534;2023-02-01T10:26:41;8.80;77.20
65046;DHT22;54657;52.022;5.534;2023-02-01T10:28:51;8.80;78.00
65046;DHT22;54657;52.022;5.534;2023-02-01T10:31:17;8.80;77.90
65046;DHT22;54657;52.022;5.534;2023-02-01T10:33:46;8.70;78.50
65046;DHT22;54657;52.022;5.534;2023-02-01T10:36:21;8.70;78.80
65046;DHT22;54657;52.022;5.534;2023-02-01T10:38:48;8.70;79.20
65046;DHT22;54657;52.022;5.534;2023-02-01T10:41:17;8.70;79.60
65046;DHT22;54657;52.022;5.534;2023-02-01T10:43:45;8.60;80.10
65046;DHT22;54657;52.022;5.534;2023-02-01T10:46:13;8.60;80.20
65046;DHT22;54657;52.022;5.534;2023-02-01T10:48:39;8.50;80.40
65046;DHT22;54657;52.022;5.534;2023-02-01T10:51:12;8.50;80.50
65046;DHT22;54657;52.022;5.534;2023-02-01T10:53:54;8.50;80.70
65046;DHT22;54657;52.022;5.534;2023-02-01T10:56:27;8.40;80.70
65046;DHT22;54657;52.022;5.534;2023-02-01T10:59:04;8.40;80.60
65046;DHT22;54657;52.022;5.534;2023-02-01T11:01:36;8.40;80.30
65046;DHT22;54657;52.022;5.534;2023-02-01T11:04:04;8.40;80.30
65046;DHT22;54657;52.022;5.534;2023-02-01T11:06:39;8.50;80.20
65046;DHT22;54657;52.022;5.534;2023-02-01T11:11:31;8.50;79.80
65046;DHT22;54657;52.022;5.534;2023-02-01T11:14:08;8.50;79.70
65046;DHT22;54657;52.022;5.534;2023-02-01T11:16:38;8.50;79.40
65046;DHT22;54657;52.022;5.534;2023-02-01T11:19:05;8.60;79.40
65046;DHT22;54657;52.022;5.534;2023-02-01T11:21:32;8.60;79.10
65046;DHT22;54657;52.022;5.534;2023-02-01T11:24:05;8.60;79.00
65046;DHT22;54657;52.022;5.534;2023-02-01T11:26:39;8.60;78.90
65046;DHT22;54657;52.022;5.534;2023-02-01T11:29:12;8.60;79.10
65046;DHT22;54657;52.022;5.534;2023-02-01T11:31:39;8.60;79.20
65046;DHT22;54657;52.022;5.534;2023-02-01T11:34:22;8.60;79.40
65046;DHT22;54657;52.022;5.534;2023-02-01T11:36:50;8.60;79.30
65046;DHT22;54657;52.022;5.534;2023-02-01T11:39:31;8.60;79.70
65046;DHT22;54657;52.022;5.534;2023-02-01T11:47:18;8.60;79.90
65046;DHT22;54657;52.022;5.534;2023-02-01T11:49:44;8.70;80.10
65046;DHT22;54657;52.022;5.534;2023-02-01T11:52:26;8.70;79.90
65046;DHT22;54657;52.022;5.534;2023-02-01T12:03:53;8.80;79.40
65046;DHT22;54657;52.022;5.534;2023-02-01T12:06:31;8.80;79.10
65046;DHT22;54657;52.022;5.534;2023-02-01T12:09:16;8.90;79.20
65046;DHT22;54657;52.022;5.534;2023-02-01T12:23:00;9.20;78.10
65046;DHT22;54657;52.022;5.534;2023-02-01T12:28:16;9.20;77.90
65046;DHT22;54657;52.022;5.534;2023-02-01T12:30:49;9.30;77.80
65046;DHT22;54657;52.022;5.534;2023-02-01T12:39:21;9.30;77.50
65046;DHT22;54657;52.022;5.534;2023-02-01T12:44:38;9.40;77.30
65046;DHT22;54657;52.022;5.534;2023-02-01T12:50:12;9.40;76.50
65046;DHT22;54657;52.022;5.534;2023-02-01T12:52:45;9.40;76.70
65046;DHT22;54657;52.022;5.534;2023-02-01T12:55:35;9.40;77.00
65046;DHT22;54657;52.022;5.534;2023-02-01T12:58:14;9.40;77.00
65046;DHT22;54657;52.022;5.534;2023-02-01T13:00:49;9.40;76.80
65046;DHT22;54657;52.022;5.534;2023-02-01T13:03:38;9.40;77.40
65046;DHT22;54657;52.022;5.534;2023-02-01T13:06:13;9.40;77.30
65046;DHT22;54657;52.022;5.534;2023-02-01T13:08:48;9.40;77.10
65046;DHT22;54657;52.022;5.534;2023-02-01T13:11:20;9.40;76.80
65046;DHT22;54657;52.022;5.534;2023-02-01T13:17:23;9.40;76.30
65046;DHT22;54657;52.022;5.534;2023-02-01T13:22:46;9.40;76.70
65046;DHT22;54657;52.022;5.534;2023-02-01T13:25:27;9.40;76.90
65046;DHT22;54657;52.022;5.534;2023-02-01T13:27:56;9.40;76.80
65046;DHT22;54657;52.022;5.534;2023-02-01T13:30:32;9.30;76.90
65046;DHT22;54657;52.022;5.534;2023-02-01T13:35:55;9.30;77.00
65046;DHT22;54657;52.022;5.534;2023-02-01T13:38:53;9.30;76.50
65046;DHT22;54657;52.022;5.534;2023-02-01T13:41:31;9.30;76.60
65046;DHT22;54657;52.022;5.534;2023-02-01T13:44:10;9.40;77.20
65046;DHT22;54657;52.022;5.534;2023-02-01T13:46:44;9.40;76.70
65046;DHT22;54657;52.022;5.534;2023-02-01T13:49:28;9.40;76.50
65046;DHT22;54657;52.022;5.534;2023-02-01T13:51:57;9.40;76.30
65046;DHT22;54657;52.022;5.534;2023-02-01T13:54:38;9.40;77.00
65046;DHT22;54657;52.022;5.534;2023-02-01T13:57:13;9.40;76.90
65046;DHT22;54657;52.022;5.534;2023-02-01T13:59:52;9.40;76.80
65046;DHT22;54657;52.022;5.534;2023-02-01T14:05:04;9.40;76.50
65046;DHT22;54657;52.022;5.534;2023-02-01T14:07:33;9.40;77.00
65046;DHT22;54657;52.022;5.534;2023-02-01T14:10:31;9.40;76.70
65046;DHT22;54657;52.022;5.534;2023-02-01T14:12:48;9.50;76.80
65046;DHT22;54657;52.022;5.534;2023-02-01T14:15:23;9.50;76.40
65046;DHT22;54657;52.022;5.534;2023-02-01T14:17:50;9.50;75.60
65046;DHT22;54657;52.022;5.534;2023-02-01T14:20:43;9.50;76.50
65046;DHT22;54657;52.022;5.534;2023-02-01T14:23:14;9.50;76.10
65046;DHT22;54657;52.022;5.534;2023-02-01T14:25:41;9.50;76.70
65046;DHT22;54657;52.022;5.534;2023-02-01T14:28:25;9.50;76.80
65046;DHT22;54657;52.022;5.534;2023-02-01T14:30:53;9.60;76.00
65046;DHT22;54657;52.022;5.534;2023-02-01T14:33:24;9.50;76.60
65046;DHT22;54657;52.022;5.534;2023-02-01T14:38:28;9.60;76.70
65046;DHT22;54657;52.022;5.534;2023-02-01T14:41:23;9.50;76.80
65046;DHT22;54657;52.022;5.534;2023-02-01T14:44:13;9.60;76.60
65046;DHT22;54657;52.022;5.534;2023-02-01T14:47:09;9.50;76.50
65046;DHT22;54657;52.022;5.534;2023-02-01T14:49:42;9.50;76.50
65046;DHT22;54657;52.022;5.534;2023-02-01T14:52:17;9.50;77.10
65046;DHT22;54657;52.022;5.534;2023-02-01T14:54:55;9.50;77.10
65046;DHT22;54657;52.022;5.534;2023-02-01T14:57:23;9.50;77.20
65046;DHT22;54657;52.022;5.534;2023-02-01T14:59:55;9.50;77.20
65046;DHT22;54657;52.022;5.534;2023-02-01T15:02:26;9.50;77.00
65046;DHT22;54657;52.022;5.534;2023-02-01T15:04:55;9.50;77.00
65046;DHT22;54657;52.022;5.534;2023-02-01T15:07:22;9.50;77.00
65046;DHT22;54657;52.022;5.534;2023-02-01T15:09:50;9.50;77.10
65046;DHT22;54657;52.022;5.534;2023-02-01T15:12:18;9.50;77.20
65046;DHT22;54657;52.022;5.534;2023-02-01T15:17:40;9.50;77.10
65046;DHT22;54657;52.022;5.534;2023-02-01T15:20:18;9.50;77.20
65046;DHT22;54657;52.022;5.534;2023-02-01T15:22:55;9.50;77.10
65046;DHT22;54657;52.022;5.534;2023-02-01T15:25:25;9.50;77.00
65046;DHT22;54657;52.022;5.534;2023-02-01T15:27:51;9.50;77.20
65046;DHT22;54657;52.022;5.534;2023-02-01T15:30:19;9.50;77.30
65046;DHT22;54657;52.022;5.534;2023-02-01T15:32:45;9.50;77.40
65046;DHT22;54657;52.022;5.534;2023-02-01T15:41:00;9.50;76.90
65046;DHT22;54657;52.022;5.534;2023-02-01T15:43:27;9.50;77.60
65046;DHT22;54657;52.022;5.534;2023-02-01T15:45:59;9.50;77.50
65046;DHT22;54657;52.022;5.534;2023-02-01T15:48:27;9.50;77.60
65046;DHT22;54657;52.022;5.534;2023-02-01T15:50:55;9.50;77.70
65046;DHT22;54657;52.022;5.534;2023-02-01T15:53:24;9.50;77.70
65046;DHT22;54657;52.022;5.534;2023-02-01T15:55:55;9.50;77.60
65046;DHT22;54657;52.022;5.534;2023-02-01T15:58:24;9.50;77.60
65046;DHT22;54657;52.022;5.534;2023-02-01T16:00:56;9.50;77.70
65046;DHT22;54657;52.022;5.534;2023-02-01T16:03:43;9.50;77.70
65046;DHT22;54657;52.022;5.534;2023-02-01T16:06:26;9.50;77.10
65046;DHT22;54657;52.022;5.534;2023-02-01T16:11:32;9.50;77.40
65046;DHT22;54657;52.022;5.534;2023-02-01T16:14:04;9.50;77.90
65046;DHT22;54657;52.022;5.534;2023-02-01T16:16:30;9.50;77.90
65046;DHT22;54657;52.022;5.534;2023-02-01T16:18:56;9.50;78.50
65046;DHT22;54657;52.022;5.534;2023-02-01T16:21:21;9.50;77.90
65046;DHT22;54657;52.022;5.534;2023-02-01T16:23:51;9.50;77.90
65046;DHT22;54657;52.022;5.534;2023-02-01T16:26:17;9.50;77.80
65046;DHT22;54657;52.022;5.534;2023-02-01T16:28:43;9.50;77.80
65046;DHT22;54657;52.022;5.534;2023-02-01T16:31:14;9.60;77.80
65046;DHT22;54657;52.022;5.534;2023-02-01T16:33:45;9.60;77.60
65046;DHT22;54657;52.022;5.534;2023-02-01T16:36:11;9.60;77.80
65046;DHT22;54657;52.022;5.534;2023-02-01T16:38:39;9.50;77.60
65046;DHT22;54657;52.022;5.534;2023-02-01T16:41:04;9.50;77.60
65046;DHT22;54657;52.022;5.534;2023-02-01T16:44:20;9.60;77.80
65046;DHT22;54657;52.022;5.534;2023-02-01T16:55:20;9.60;77.80
65046;DHT22;54657;52.022;5.534;2023-02-01T16:57:47;9.60;77.80
65046;DHT22;54657;52.022;5.534;2023-02-01T17:00:15;9.60;77.60
65046;DHT22;54657;52.022;5.534;2023-02-01T17:02:41;9.70;78.20
65046;DHT22;54657;52.022;5.534;2023-02-01T17:05:31;9.70;77.60
65046;DHT22;54657;52.022;5.534;2023-02-01T17:08:32;9.70;77.40
65046;DHT22;54657;52.022;5.534;2023-02-01T17:10:59;9.70;77.10
65046;DHT22;54657;52.022;5.534;2023-02-01T17:13:25;9.70;77.30
65046;DHT22;54657;52.022;5.534;2023-02-01T17:16:04;9.70;77.40
65046;DHT22;54657;52.022;5.534;2023-02-01T17:22:07;9.80;77.20
65046;DHT22;54657;52.022;5.534;2023-02-01T17:24:33;9.80;77.30
65046;DHT22;54657;52.022;5.534;2023-02-01T17:27:01;9.70;77.30
65046;DHT22;54657;52.022;5.534;2023-02-01T17:29:28;9.70;77.30
65046;DHT22;54657;52.022;5.534;2023-02-01T17:31:55;9.80;77.30
65046;DHT22;54657;52.022;5.534;2023-02-01T17:34:21;9.70;77.00
65046;DHT22;54657;52.022;5.534;2023-02-01T17:36:48;9.70;77.10
65046;DHT22;54657;52.022;5.534;2023-02-01T17:39:16;9.80;77.10
65046;DHT22;54657;52.022;5.534;2023-02-01T17:42:02;9.80;76.90
65046;DHT22;54657;52.022;5.534;2023-02-01T17:44:30;9.80;77.10
65046;DHT22;54657;52.022;5.534;2023-02-01T17:46:56;9.80;77.30
65046;DHT22;54657;52.022;5.534;2023-02-01T17:49:24;9.80;77.30
65046;DHT22;54657;52.022;5.534;2023-02-01T17:51:49;9.80;77.20
65046;DHT22;54657;52.022;5.534;2023-02-01T17:54:16;9.80;77.00
65046;DHT22;54657;52.022;5.534;2023-02-01T17:56:49;9.80;77.10
65046;DHT22;54657;52.022;5.534;2023-02-01T17:59:15;9.80;77.00
65046;DHT22;54657;52.022;5.534;2023-02-01T18:01:42;9.80;77.10
65046;DHT22;54657;52.022;5.534;2023-02-01T18:04:12;9.90;77.00
65046;DHT22;54657;52.022;5.534;2023-02-01T18:06:37;9.90;76.90
65046;DHT22;54657;52.022;5.534;2023-02-01T18:09:03;9.90;77.10
65046;DHT22;54657;52.022;5.534;2023-02-01T18:11:29;9.90;77.10
65046;DHT22;54657;52.022;5.534;2023-02-01T18:13:58;9.90;77.10
65046;DHT22;54657;52.022;5.534;2023-02-01T18:16:33;9.90;77.10
65046;DHT22;54657;52.022;5.534;2023-02-01T18:19:06;9.90;77.10
65046;DHT22;54657;52.022;5.534;2023-02-01T18:21:34;9.90;77.90
65046;DHT22;54657;52.022;5.534;2023-02-01T18:24:00;9.90;77.30
65046;DHT22;54657;52.022;5.534;2023-02-01T18:26:26;9.90;77.40
65046;DHT22;54657;52.022;5.534;2023-02-01T18:28:54;9.90;77.50
65046;DHT22;54657;52.022;5.534;2023-02-01T18:31:28;9.90;77.60
65046;DHT22;54657;52.022;5.534;2023-02-01T18:33:56;9.90;77.70
65046;DHT22;54657;52.022;5.534;2023-02-01T18:36:22;9.90;77.90
65046;DHT22;54657;52.022;5.534;2023-02-01T18:38:48;9.90;77.90
65046;DHT22;54657;52.022;5.534;2023-02-01T18:41:16;9.90;78.00
65046;DHT22;54657;52.022;5.534;2023-02-01T18:43:42;9.80;77.90
65046;DHT22;54657;52.022;5.534;2023-02-01T18:46:16;9.90;78.00
65046;DHT22;54657;52.022;5.534;2023-02-01T18:48:42;9.90;78.00
65046;DHT22;54657;52.022;5.534;2023-02-01T18:51:10;9.90;78.00
65046;DHT22;54657;52.022;5.534;2023-02-01T18:53:36;9.90;78.00
65046;DHT22;54657;52.022;5.534;2023-02-01T18:56:03;9.90;78.00
65046;DHT22;54657;52.022;5.534;2023-02-01T18:58:28;9.90;77.90
65046;DHT22;54657;52.022;5.534;2023-02-01T19:00:55;9.90;78.00